createdAt,value
2019-03-27T00:01:15.641Z,25.07
2019-03-27T00:03:44.039Z,25.50
2019-03-27T00:06:12.193Z,23.63
2019-03-27T00:08:40.294Z,20.83
2019-03-27T00:11:08.708Z,24.63
2019-03-27T00:13:37.338Z,23.93
2019-03-27T00:16:07.310Z,24.50
2019-03-27T00:18:35.500Z,26.30
2019-03-27T00:21:03.705Z,23.50
2019-03-27T00:23:31.846Z,22.43
2019-03-27T00:26:00.056Z,23.37
2019-03-27T00:28:28.216Z,23.37
2019-03-27T00:30:56.852Z,23.30
2019-03-27T00:33:25.064Z,21.40
2019-03-27T00:35:53.147Z,24.77
2019-03-27T00:38:21.251Z,21.93
2019-03-27T00:40:49.332Z,24.90
2019-03-27T00:43:17.457Z,23.10
2019-03-27T00:45:46.042Z,25.30
2019-03-27T00:48:14.606Z,24.63
2019-03-27T00:50:42.767Z,28.03
2019-03-27T00:53:10.840Z,20.23
2019-03-27T00:55:39.040Z,23.97
2019-03-27T00:58:07.112Z,26.53
2019-03-27T01:01:12.725Z,21.50
2019-03-27T01:03:40.957Z,24.40
2019-03-27T01:06:09.553Z,20.37
2019-03-27T01:08:37.769Z,24.93
2019-03-27T01:11:06.373Z,105.17
2019-03-27T01:13:36.992Z,25.33
2019-03-27T01:16:05.365Z,23.83
2019-03-27T01:18:33.644Z,23.70
2019-03-27T01:21:01.723Z,19.70
2019-03-27T01:23:29.824Z,22.50
2019-03-27T01:25:57.963Z,24.67
2019-03-27T01:28:26.027Z,25.10
2019-03-27T01:30:54.311Z,26.57
2019-03-27T01:33:22.536Z,23.60
2019-03-27T01:35:50.834Z,23.40
2019-03-27T01:38:19.408Z,18.33
2019-03-27T01:40:47.486Z,24.70
2019-03-27T01:43:15.576Z,26.90
2019-03-27T01:45:52.860Z,23.70
2019-03-27T01:48:13.678Z,20.33
2019-03-27T01:50:41.843Z,28.63
2019-03-27T01:53:10.469Z,23.47
2019-03-27T01:55:38.564Z,21.17
2019-03-27T01:58:06.636Z,25.90
2019-03-27T02:00:35.356Z,25.43
2019-03-27T02:03:03.644Z,25.60
2019-03-27T02:05:32.019Z,22.00
2019-03-27T02:08:00.101Z,20.50
2019-03-27T02:10:28.272Z,26.63
2019-03-27T02:12:56.333Z,20.63
2019-03-27T02:15:24.636Z,27.93
2019-03-27T02:17:52.724Z,27.77
2019-03-27T02:20:21.198Z,25.70
2019-03-27T02:22:49.273Z,27.03
2019-03-27T02:25:17.408Z,26.43
2019-03-27T02:27:45.593Z,25.57
2019-03-27T02:30:13.840Z,28.80
2019-03-27T02:32:41.990Z,25.00
2019-03-27T02:35:10.232Z,25.30
2019-03-27T02:37:38.524Z,31.87
2019-03-27T02:40:06.856Z,22.90
2019-03-27T02:42:35.008Z,25.97
2019-03-27T02:45:03.330Z,24.37
2019-03-27T02:47:31.467Z,28.57
2019-03-27T02:49:59.685Z,25.80
2019-03-27T02:52:27.880Z,26.23
2019-03-27T02:54:56.037Z,29.80
2019-03-27T02:57:24.067Z,23.07
2019-03-27T02:59:52.132Z,25.10
2019-03-27T03:02:21.021Z,26.83
2019-03-27T03:04:49.498Z,29.03
2019-03-27T03:07:17.582Z,27.90
2019-03-27T03:09:45.695Z,23.90
2019-03-27T03:12:16.997Z,27.47
2019-03-27T03:14:45.194Z,30.40
2019-03-27T03:17:16.421Z,27.40
2019-03-27T03:19:44.538Z,29.37
2019-03-27T03:22:12.908Z,23.77
2019-03-27T03:24:41.033Z,29.37
2019-03-27T03:27:09.137Z,24.03
2019-03-27T03:29:37.416Z,23.80
2019-03-27T03:32:06.229Z,26.33
2019-03-27T03:34:34.556Z,28.93
2019-03-27T03:37:02.878Z,29.43
2019-03-27T03:39:31.113Z,25.40
2019-03-27T03:41:59.285Z,24.40
2019-03-27T03:44:27.554Z,25.13
2019-03-27T03:47:00.179Z,29.50
2019-03-27T03:49:26.440Z,28.63
2019-03-27T03:51:57.790Z,30.90
2019-03-27T03:54:26.268Z,28.93
2019-03-27T03:56:57.203Z,28.87
2019-03-27T03:59:28.019Z,27.03
2019-03-27T04:01:58.054Z,28.50
2019-03-27T04:04:27.068Z,28.90
2019-03-27T04:06:55.386Z,29.53
2019-03-27T04:09:23.534Z,28.17
2019-03-27T04:11:51.814Z,32.23
2019-03-27T04:14:20.182Z,35.50
2019-03-27T04:16:48.310Z,27.17
2019-03-27T04:19:16.431Z,26.47
2019-03-27T04:21:44.780Z,28.00
2019-03-27T04:24:13.021Z,33.50
2019-03-27T04:26:41.639Z,29.17
2019-03-27T04:29:09.848Z,30.83
2019-03-27T04:31:37.914Z,33.70
2019-03-27T04:34:05.974Z,31.43
2019-03-27T04:36:34.023Z,28.10
2019-03-27T04:39:03.407Z,32.63
2019-03-27T04:41:31.561Z,32.57
2019-03-27T04:44:00.958Z,32.43
2019-03-27T04:46:29.139Z,31.17
2019-03-27T04:48:57.513Z,30.67
2019-03-27T04:51:25.693Z,33.93
2019-03-27T04:53:53.806Z,29.70
2019-03-27T04:56:21.829Z,33.60
2019-03-27T04:58:50.056Z,35.03
2019-03-27T05:01:18.557Z,30.90
2019-03-27T05:03:46.645Z,32.07
2019-03-27T05:06:14.769Z,32.33
2019-03-27T05:08:42.818Z,32.27
2019-03-27T05:11:10.840Z,28.57
2019-03-27T05:13:38.969Z,36.20
2019-03-27T05:16:07.094Z,32.00
2019-03-27T05:18:35.240Z,29.40
2019-03-27T05:21:03.331Z,28.80
2019-03-27T05:23:31.680Z,29.40
2019-03-27T05:25:59.868Z,30.70
2019-03-27T05:28:27.949Z,27.37
2019-03-27T05:30:55.964Z,31.60
2019-03-27T05:33:24.004Z,31.53
2019-03-27T05:35:52.432Z,29.60
2019-03-27T05:38:20.557Z,31.07
2019-03-27T05:40:48.741Z,28.77
2019-03-27T05:43:16.830Z,34.67
2019-03-27T05:45:44.945Z,31.93
2019-03-27T05:48:13.271Z,33.37
2019-03-27T05:50:41.348Z,29.63
2019-03-27T05:53:09.415Z,38.57
2019-03-27T05:55:37.554Z,40.80
2019-03-27T05:58:05.628Z,47.00
2019-03-27T06:00:33.751Z,33.63
2019-03-27T06:03:01.839Z,29.90
2019-03-27T06:05:29.894Z,33.30
2019-03-27T06:07:58.350Z,34.27
2019-03-27T06:10:32.869Z,29.73
2019-03-27T06:13:01.432Z,31.13
2019-03-27T06:15:29.481Z,32.93
2019-03-27T06:17:57.636Z,32.10
2019-03-27T06:20:26.324Z,31.13
2019-03-27T06:22:54.555Z,30.80
2019-03-27T06:25:22.683Z,36.10
2019-03-27T06:27:51.500Z,29.90
2019-03-27T06:30:19.621Z,34.27
2019-03-27T06:32:47.652Z,32.03
2019-03-27T06:35:15.765Z,39.43
2019-03-27T06:37:44.076Z,37.77
2019-03-27T06:40:12.385Z,27.33
2019-03-27T06:42:40.441Z,30.03
2019-03-27T06:45:09.516Z,34.10
2019-03-27T06:47:37.612Z,31.50
2019-03-27T06:50:06.401Z,31.70
2019-03-27T06:52:34.533Z,35.90
2019-03-27T06:55:02.693Z,40.43
2019-03-27T06:57:30.820Z,37.33
2019-03-27T06:59:58.881Z,37.00
2019-03-27T07:02:29.011Z,31.67
2019-03-27T07:04:59.229Z,32.17
2019-03-27T07:07:28.985Z,36.90
2019-03-27T07:10:02.526Z,34.93
2019-03-27T07:12:31.442Z,37.63
2019-03-27T07:14:59.637Z,41.00
2019-03-27T07:17:40.559Z,36.80
2019-03-27T07:20:10.185Z,36.73
2019-03-27T07:22:39.500Z,38.43
2019-03-27T07:25:10.241Z,36.37
2019-03-27T07:27:38.469Z,37.53
2019-03-27T07:30:08.379Z,39.40
2019-03-27T07:32:36.492Z,31.70
2019-03-27T07:35:04.920Z,41.43
2019-03-27T07:37:33.073Z,38.13
2019-03-27T07:40:01.258Z,37.83
2019-03-27T07:42:29.793Z,41.20
2019-03-27T07:44:57.945Z,37.63
2019-03-27T07:47:29.380Z,38.03
2019-03-27T07:49:57.417Z,34.67
2019-03-27T07:52:25.600Z,37.23
2019-03-27T07:54:53.637Z,35.27
2019-03-27T07:57:21.798Z,40.90
2019-03-27T07:59:50.224Z,41.43
2019-03-27T08:02:19.850Z,36.07
2019-03-27T08:04:52.650Z,35.47
2019-03-27T08:11:38.815Z,33.93
2019-03-27T08:14:14.366Z,35.83
2019-03-27T08:17:01.786Z,37.47
2019-03-27T08:19:30.118Z,37.47
2019-03-27T08:22:03.761Z,40.03
2019-03-27T08:24:37.221Z,36.80
2019-03-27T08:27:08.523Z,35.37
2019-03-27T08:29:47.744Z,36.80
2019-03-27T08:32:14.062Z,37.90
2019-03-27T08:34:42.273Z,40.20
2019-03-27T08:37:11.178Z,34.70
2019-03-27T08:39:42.518Z,32.87
2019-03-27T08:42:11.584Z,31.57
2019-03-27T08:44:45.246Z,36.97
2019-03-27T08:47:13.779Z,30.10
2019-03-27T08:49:42.199Z,37.10
2019-03-27T08:52:10.885Z,36.23
2019-03-27T08:54:46.352Z,38.03
2019-03-27T08:57:14.461Z,38.03
2019-03-27T08:59:45.654Z,32.67
2019-03-27T09:02:15.730Z,36.07
2019-03-27T09:04:43.791Z,37.03
2019-03-27T09:07:11.888Z,39.37
2019-03-27T09:09:40.493Z,32.37
2019-03-27T09:12:08.749Z,31.37
2019-03-27T09:14:36.976Z,31.97
2019-03-27T09:17:05.684Z,29.53
2019-03-27T09:19:35.977Z,31.07
2019-03-27T09:22:03.858Z,32.70
2019-03-27T09:24:31.893Z,29.90
2019-03-27T09:27:02.773Z,37.43
2019-03-27T09:29:31.157Z,24.93
2019-03-27T09:31:59.303Z,26.73
2019-03-27T09:34:27.624Z,26.07
2019-03-27T09:36:55.893Z,27.07
2019-03-27T09:39:24.718Z,24.13
2019-03-27T09:41:53.509Z,20.90
2019-03-27T09:44:21.576Z,21.73
2019-03-27T09:46:49.816Z,24.63
2019-03-27T09:49:17.919Z,26.70
2019-03-27T09:51:46.006Z,23.63
2019-03-27T09:54:14.248Z,23.50
2019-03-27T09:56:42.374Z,21.30
2019-03-27T09:59:10.478Z,20.23
2019-03-27T10:01:39.645Z,21.00
2019-03-27T10:04:08.005Z,21.67
2019-03-27T10:06:36.160Z,19.80
2019-03-27T10:09:06.422Z,13.97
2019-03-27T10:11:34.677Z,10.80
2019-03-27T10:14:02.748Z,16.27
2019-03-27T10:16:30.934Z,12.03
2019-03-27T10:18:59.225Z,11.10
2019-03-27T10:21:27.686Z,12.13
2019-03-27T10:23:56.882Z,13.80
2019-03-27T10:26:25.024Z,11.17
2019-03-27T10:28:54.113Z,13.97
2019-03-27T10:31:22.383Z,15.60
2019-03-27T10:34:03.642Z,14.23
2019-03-27T10:36:35.126Z,13.87
2019-03-27T10:39:09.352Z,15.17
2019-03-27T10:41:38.015Z,9.37
2019-03-27T10:44:06.354Z,10.00
2019-03-27T10:46:34.691Z,13.90
2019-03-27T10:49:03.753Z,8.47
2019-03-27T10:51:32.093Z,11.57
2019-03-27T10:54:03.805Z,17.53
2019-03-27T10:56:32.257Z,12.47
2019-03-27T10:59:00.410Z,9.00
2019-03-27T11:01:28.700Z,9.40
2019-03-27T11:03:57.951Z,9.93
2019-03-27T11:06:26.376Z,6.73
2019-03-27T11:08:54.869Z,8.30
2019-03-27T11:11:23.249Z,9.40
2019-03-27T11:13:52.308Z,8.23
2019-03-27T11:16:20.994Z,9.60
2019-03-27T11:18:51.574Z,7.77
2019-03-27T11:21:20.965Z,5.93
2019-03-27T11:26:59.246Z,5.30
2019-03-27T11:29:27.532Z,5.80
2019-03-27T11:32:28.702Z,6.60
2019-03-27T11:35:04.505Z,6.03
2019-03-27T11:37:35.096Z,5.33
2019-03-27T11:40:12.599Z,6.00
2019-03-27T11:42:47.082Z,9.70
2019-03-27T11:45:15.807Z,5.37
2019-03-27T11:47:49.344Z,6.17
2019-03-27T11:50:28.317Z,5.07
2019-03-27T11:53:05.842Z,6.47
2019-03-27T11:55:37.603Z,6.00
2019-03-27T11:58:06.517Z,4.40
2019-03-27T12:00:38.142Z,5.40
2019-03-27T12:03:15.299Z,7.97
2019-03-27T12:05:54.594Z,6.23
2019-03-27T12:08:23.242Z,7.60
2019-03-27T12:11:34.169Z,6.60
2019-03-27T12:14:03.064Z,5.90
2019-03-27T12:16:49.994Z,8.00
2019-03-27T12:19:16.240Z,8.53
2019-03-27T12:21:49.886Z,5.10
2019-03-27T12:24:18.183Z,12.33
2019-03-27T12:26:47.241Z,6.47
2019-03-27T12:29:18.074Z,6.57
2019-03-27T12:31:45.897Z,7.27
2019-03-27T12:34:23.887Z,7.90
2019-03-27T12:36:52.410Z,5.53
2019-03-27T12:42:25.874Z,5.90
2019-03-27T12:45:13.198Z,5.33
2019-03-27T12:48:05.578Z,7.10
2019-03-27T12:50:44.387Z,4.70
2019-03-27T12:53:12.504Z,6.67
2019-03-27T12:55:48.304Z,5.90
2019-03-27T12:58:26.418Z,7.60
2019-03-27T13:00:55.894Z,6.60
2019-03-27T13:03:26.717Z,6.07
2019-03-27T13:06:07.514Z,8.97
2019-03-27T13:08:45.736Z,7.87
2019-03-27T13:11:14.386Z,8.50
2019-03-27T13:13:42.782Z,8.00
2019-03-27T13:16:11.080Z,12.67
2019-03-27T13:18:39.613Z,12.90
2019-03-27T13:21:08.494Z,7.40
2019-03-27T13:23:37.357Z,5.70
2019-03-27T13:26:05.581Z,9.33
2019-03-27T13:28:47.834Z,8.40
2019-03-27T13:31:05.874Z,6.77
2019-03-27T13:33:34.223Z,7.70
2019-03-27T13:36:02.683Z,11.40
2019-03-27T13:38:31.281Z,7.37
2019-03-27T13:41:02.756Z,7.50
2019-03-27T13:43:31.100Z,9.03
2019-03-27T13:45:59.706Z,9.73
2019-03-27T13:48:28.157Z,9.07
2019-03-27T13:50:56.557Z,10.13
2019-03-27T13:53:25.737Z,9.03
2019-03-27T13:55:54.181Z,9.23
2019-03-27T13:58:23.125Z,12.37
2019-03-27T14:00:51.389Z,8.60
2019-03-27T14:03:19.697Z,8.47
2019-03-27T14:05:48.021Z,9.60
2019-03-27T14:08:16.084Z,7.83
2019-03-27T14:10:44.529Z,13.40
2019-03-27T14:13:12.735Z,7.27
2019-03-27T14:15:40.976Z,8.70
2019-03-27T14:18:09.374Z,8.30
2019-03-27T14:20:43.369Z,10.23
2019-03-27T14:23:11.921Z,6.60
2019-03-27T14:25:40.275Z,8.00
2019-03-27T14:28:09.256Z,7.53
2019-03-27T14:31:03.021Z,5.67
2019-03-27T14:33:31.278Z,5.27
2019-03-27T14:35:59.825Z,6.27
2019-03-27T14:38:28.013Z,6.73
2019-03-27T14:40:56.371Z,8.80
2019-03-27T14:43:27.093Z,5.10
2019-03-27T14:45:54.717Z,6.50
2019-03-27T14:48:23.144Z,4.13
2019-03-27T14:50:51.473Z,4.57
2019-03-27T14:53:19.821Z,6.67
2019-03-27T14:55:48.032Z,5.67
2019-03-27T14:58:16.217Z,6.27
2019-03-27T15:00:45.019Z,6.67
2019-03-27T15:03:13.230Z,5.13
2019-03-27T15:05:46.713Z,4.20
2019-03-27T15:08:15.028Z,7.80
2019-03-27T15:10:43.434Z,7.83
2019-03-27T15:13:15.048Z,9.20
2019-03-27T15:15:41.742Z,7.57
2019-03-27T15:18:10.131Z,6.00
2019-03-27T15:20:39.098Z,5.30
2019-03-27T15:23:07.503Z,5.90
2019-03-27T15:25:38.393Z,6.97
2019-03-27T15:28:06.918Z,7.30
2019-03-27T15:30:35.270Z,4.27
2019-03-27T15:33:06.981Z,7.93
2019-03-27T15:35:35.442Z,8.43
2019-03-27T15:38:05.313Z,8.90
2019-03-27T15:40:42.234Z,5.50
2019-03-27T15:43:11.023Z,5.60
2019-03-27T15:45:39.527Z,5.83
2019-03-27T15:48:09.803Z,5.13
2019-03-27T15:50:38.183Z,5.87
2019-03-27T15:53:06.681Z,4.33
2019-03-27T15:55:35.498Z,6.47
2019-03-27T15:58:04.329Z,5.73
2019-03-27T16:00:35.011Z,4.60
2019-03-27T16:06:21.705Z,7.83
2019-03-27T16:08:50.609Z,9.00
2019-03-27T16:11:19.005Z,5.77
2019-03-27T16:13:47.502Z,7.27
2019-03-27T16:16:20.325Z,4.90
2019-03-27T16:18:53.324Z,5.83
2019-03-27T16:21:21.916Z,4.30
2019-03-27T16:24:06.287Z,4.40
2019-03-27T16:26:30.623Z,6.43
2019-03-27T16:29:00.170Z,6.70
2019-03-27T16:31:28.222Z,7.80
2019-03-27T16:33:56.288Z,6.57
2019-03-27T16:36:37.596Z,5.77
2019-03-27T16:39:13.335Z,6.70
2019-03-27T16:41:48.018Z,5.13
2019-03-27T16:44:18.316Z,5.50
2019-03-27T16:46:48.155Z,4.40
2019-03-27T16:49:16.370Z,5.47
2019-03-27T16:51:44.746Z,5.50
2019-03-27T16:54:12.785Z,6.20
2019-03-27T16:56:41.128Z,5.67
2019-03-27T16:59:09.284Z,6.00
2019-03-27T17:04:43.325Z,5.43
2019-03-27T17:07:20.558Z,4.90
2019-03-27T17:09:53.182Z,8.73
2019-03-27T17:12:21.199Z,5.60
2019-03-27T17:14:49.368Z,5.50
2019-03-27T17:17:17.822Z,5.43
2019-03-27T17:19:46.209Z,6.57
2019-03-27T17:23:21.527Z,6.57
2019-03-27T17:25:57.577Z,6.10
2019-03-27T17:28:25.713Z,5.60
2019-03-27T17:30:53.701Z,5.43
2019-03-27T17:33:21.929Z,7.70
2019-03-27T17:35:49.987Z,6.27
2019-03-27T17:38:18.354Z,6.87
2019-03-27T17:40:46.989Z,6.53
2019-03-27T17:43:15.036Z,4.53
2019-03-27T17:45:45.458Z,5.40
2019-03-27T17:48:13.836Z,17.87
2019-03-27T17:50:41.840Z,15.40
2019-03-27T17:53:10.157Z,8.83
2019-03-27T17:55:38.228Z,9.63
2019-03-27T17:58:06.450Z,8.87
2019-03-27T18:00:48.802Z,6.40
2019-03-27T18:03:17.114Z,6.07
2019-03-27T18:05:53.917Z,5.93
2019-03-27T18:08:22.627Z,5.07
2019-03-27T18:10:50.739Z,6.40
2019-03-27T18:13:18.780Z,6.87
2019-03-27T18:15:57.010Z,10.60
2019-03-27T18:18:28.877Z,6.60
2019-03-27T18:20:57.382Z,6.90
2019-03-27T18:23:45.363Z,14.40
2019-03-27T18:26:04.220Z,11.37
2019-03-27T18:28:32.849Z,9.70
2019-03-27T18:31:01.005Z,11.20
2019-03-27T18:33:29.492Z,8.90
2019-03-27T18:35:57.745Z,10.73
2019-03-27T18:38:26.203Z,11.53
2019-03-27T18:40:54.738Z,9.30
2019-03-27T18:43:23.292Z,8.93
2019-03-27T18:45:51.727Z,9.40
2019-03-27T18:48:20.219Z,12.03
2019-03-27T18:50:48.498Z,11.23
2019-03-27T18:53:16.709Z,12.90
2019-03-27T18:55:47.283Z,10.00
2019-03-27T18:58:15.492Z,10.40
2019-03-27T19:00:43.673Z,9.47
2019-03-27T19:03:12.001Z,9.43
2019-03-27T19:05:40.148Z,10.17
2019-03-27T19:08:09.107Z,12.13
2019-03-27T19:10:38.289Z,19.93
2019-03-27T19:13:10.369Z,25.90
2019-03-27T19:15:49.293Z,25.70
2019-03-27T19:18:28.114Z,26.97
2019-03-27T19:21:05.867Z,31.17
2019-03-27T19:23:34.284Z,25.93
2019-03-27T19:26:02.857Z,19.40
2019-03-27T19:28:37.093Z,16.00
2019-03-27T19:31:05.541Z,13.27
2019-03-27T19:33:33.827Z,15.13
2019-03-27T19:36:02.275Z,9.40
2019-03-27T19:38:30.813Z,10.80
2019-03-27T19:40:58.954Z,10.87
2019-03-27T19:43:27.118Z,11.53
2019-03-27T19:45:57.629Z,12.03
2019-03-27T19:48:25.868Z,10.17
2019-03-27T19:50:54.277Z,12.10
2019-03-27T19:53:22.384Z,12.10
2019-03-27T19:55:50.585Z,10.77
2019-03-27T19:58:18.799Z,9.20
2019-03-27T20:00:47.229Z,11.73
2019-03-27T20:03:15.517Z,9.43
2019-03-27T20:05:44.839Z,8.63
2019-03-27T20:08:13.207Z,8.33
2019-03-27T20:10:44.349Z,10.73
2019-03-27T20:13:12.623Z,9.37
2019-03-27T20:15:43.505Z,8.13
2019-03-27T20:18:11.890Z,11.70
2019-03-27T20:20:42.637Z,11.87
2019-03-27T20:23:18.321Z,8.33
2019-03-27T20:25:47.157Z,8.70
2019-03-27T20:28:15.947Z,11.40
2019-03-27T20:30:44.386Z,9.50
2019-03-27T20:33:12.553Z,10.03
2019-03-27T20:35:41.133Z,10.80
2019-03-27T20:38:09.721Z,10.10
2019-03-27T20:40:39.363Z,11.17
2019-03-27T20:43:07.859Z,10.50
2019-03-27T20:45:39.803Z,10.80
2019-03-27T20:48:11.401Z,13.07
2019-03-27T20:50:41.674Z,14.73
2019-03-27T20:53:10.200Z,11.33
2019-03-27T20:55:43.427Z,12.20
2019-03-27T20:58:12.229Z,12.53
2019-03-27T21:00:40.841Z,10.50
2019-03-27T21:03:09.554Z,11.60
2019-03-27T21:05:40.579Z,11.30
2019-03-27T21:08:09.216Z,14.97
2019-03-27T21:10:37.927Z,15.53
2019-03-27T21:13:09.357Z,11.50
2019-03-27T21:15:40.639Z,15.90
2019-03-27T21:18:15.375Z,13.13
2019-03-27T21:20:43.975Z,12.00
2019-03-27T21:23:15.318Z,12.27
2019-03-27T21:25:44.064Z,11.83
2019-03-27T21:28:14.716Z,15.97
2019-03-27T21:30:43.485Z,13.37
2019-03-27T21:33:12.502Z,14.27
2019-03-27T21:35:55.286Z,13.73
2019-03-27T21:38:29.354Z,11.53
2019-03-27T21:40:59.272Z,14.07
2019-03-27T21:43:27.623Z,14.13
2019-03-27T21:45:58.257Z,16.93
2019-03-27T21:48:26.645Z,19.27
2019-03-27T21:50:54.997Z,18.40
2019-03-27T21:53:25.491Z,12.60
2019-03-27T21:55:54.517Z,14.47
2019-03-27T21:58:25.851Z,14.13
2019-03-27T22:00:54.217Z,16.70
2019-03-27T22:03:22.276Z,15.33
2019-03-27T22:05:50.510Z,15.90
2019-03-27T22:08:19.640Z,15.70
2019-03-27T22:10:47.927Z,14.33
2019-03-27T22:13:16.076Z,12.73
2019-03-27T22:15:44.857Z,14.03
2019-03-27T22:18:13.046Z,13.77
2019-03-27T22:20:41.444Z,13.53
2019-03-27T22:23:09.659Z,15.93
2019-03-27T22:25:38.199Z,13.40
2019-03-27T22:28:08.529Z,12.20
2019-03-27T22:30:38.752Z,14.10
2019-03-27T22:33:07.865Z,14.37
2019-03-27T22:35:36.557Z,15.50
2019-03-27T22:38:05.107Z,13.50
2019-03-27T22:40:33.274Z,14.23
2019-03-27T22:43:02.149Z,14.50
2019-03-27T22:45:30.958Z,15.00
2019-03-27T22:48:02.096Z,13.70
2019-03-27T22:50:30.655Z,14.37
2019-03-27T22:53:00.362Z,14.17
2019-03-27T22:55:29.823Z,12.90
2019-03-27T22:57:58.199Z,31.30
2019-03-27T23:00:45.807Z,26.40
2019-03-27T23:03:18.434Z,26.93
2019-03-27T23:05:44.610Z,16.03
2019-03-27T23:08:13.532Z,16.27
2019-03-27T23:10:42.029Z,14.77
2019-03-27T23:13:11.107Z,16.73
2019-03-27T23:15:41.607Z,16.83
2019-03-27T23:18:09.897Z,14.93
2019-03-27T23:20:38.173Z,13.50
2019-03-27T23:23:06.565Z,15.40
2019-03-27T23:25:34.688Z,22.97
2019-03-27T23:28:02.992Z,17.37
2019-03-27T23:30:31.189Z,17.90
2019-03-27T23:32:59.470Z,20.53
2019-03-27T23:35:27.717Z,17.87
2019-03-27T23:37:55.993Z,19.00
2019-03-27T23:40:24.214Z,14.43
2019-03-27T23:42:52.256Z,17.67
2019-03-27T23:45:20.370Z,16.97
2019-03-27T23:47:48.441Z,14.23
2019-03-27T23:50:16.448Z,17.50
2019-03-27T23:52:44.642Z,15.10
2019-03-27T23:55:12.784Z,14.13
2019-03-27T23:57:42.825Z,13.90
